createdAt,value
2022-11-27T00:09:55.355Z,4.38
2022-11-27T00:24:57.331Z,3.80
2022-11-27T00:39:59.284Z,3.83
2022-11-27T00:55:01.210Z,3.30
2022-11-27T01:10:03.170Z,3.88
2022-11-27T01:25:05.527Z,3.45
2022-11-27T01:40:08.146Z,3.50
2022-11-27T01:55:20.339Z,3.60
2022-11-27T05:33:36.435Z,2.30
2022-11-27T05:48:38.427Z,2.50
2022-11-27T06:03:40.504Z,2.40
2022-11-27T06:18:43.024Z,2.17
2022-11-27T06:33:45.881Z,2.70
2022-11-27T06:48:49.259Z,2.50
2022-11-27T07:03:51.467Z,2.50
2022-11-27T07:18:55.350Z,2.80
2022-11-27T07:33:57.446Z,2.45
2022-11-27T07:49:00.726Z,2.67
2022-11-27T08:04:03.154Z,2.45
2022-11-27T08:19:05.173Z,2.70
2022-11-27T08:34:07.183Z,2.50
2022-11-27T08:49:09.345Z,2.70
2022-11-27T09:04:11.379Z,2.60
2022-11-27T09:19:13.420Z,2.75
2022-11-27T09:34:15.786Z,2.70
2022-11-27T09:49:27.613Z,2.80
2022-11-27T10:04:39.857Z,2.80
2022-11-27T10:20:10.221Z,2.60
2022-11-27T10:35:23.940Z,3.40
2022-11-27T10:50:28.507Z,3.20
2022-11-27T11:05:45.092Z,19.88
2022-11-27T11:20:58.121Z,22.08
2022-11-27T11:36:06.999Z,20.20
2022-11-27T11:51:14.978Z,18.20
2022-11-27T12:06:48.210Z,14.25
2022-11-27T12:22:01.171Z,14.02
2022-11-27T12:37:15.426Z,12.02
2022-11-27T12:52:23.018Z,10.00
2022-11-27T13:07:27.995Z,10.70
2022-11-27T13:22:32.348Z,8.68
2022-11-27T13:37:39.293Z,8.77
2022-11-27T13:52:56.970Z,8.60
2022-11-27T14:07:59.172Z,6.85
2022-11-27T14:23:13.232Z,6.28
2022-11-27T14:38:16.570Z,5.68
2022-11-27T14:53:22.798Z,5.55
2022-11-27T15:08:25.547Z,5.68
2022-11-27T15:23:31.475Z,5.95
2022-11-27T15:38:33.441Z,4.82
2022-11-27T15:53:35.422Z,4.82
2022-11-27T16:08:37.393Z,4.40
2022-11-27T16:23:39.549Z,4.80
2022-11-27T16:38:41.787Z,4.13
2022-11-27T16:53:45.594Z,3.90
2022-11-27T17:08:48.288Z,3.80
2022-11-27T17:23:50.849Z,3.97
2022-11-27T17:38:53.772Z,4.00
2022-11-27T17:53:57.543Z,3.90
2022-11-27T18:08:59.615Z,4.60
2022-11-27T18:39:23.923Z,4.18
2022-11-27T18:54:25.965Z,3.65
2022-11-27T19:09:28.295Z,4.10
2022-11-27T19:24:30.383Z,4.05
2022-11-27T19:39:32.855Z,4.00
2022-11-27T19:54:35.374Z,4.10
2022-11-27T20:09:37.870Z,4.18
2022-11-27T20:25:04.393Z,4.00
2022-11-27T20:40:07.235Z,3.80
2022-11-27T20:55:09.562Z,3.70
2022-11-27T21:10:13.705Z,3.95
2022-11-27T21:25:15.956Z,3.92
2022-11-27T21:40:18.135Z,4.20
2022-11-27T21:55:20.988Z,4.07
2022-11-27T22:10:23.001Z,4.05
2022-11-27T22:25:27.063Z,4.20
2022-11-27T22:40:30.145Z,4.30
2022-11-27T22:55:32.209Z,4.40
2022-11-27T23:10:34.372Z,4.50
2022-11-27T23:25:36.774Z,4.22
2022-11-27T23:40:39.490Z,4.20
2022-11-27T23:55:41.453Z,3.85
